createdAt,value
2018-04-02T00:00:17.054Z,6.97
2018-04-02T00:01:17.037Z,6.97
2018-04-02T00:02:17.015Z,6.97
2018-04-02T00:03:16.995Z,7.03
2018-04-02T00:04:16.977Z,7.00
2018-04-02T00:05:16.956Z,6.90
2018-04-02T00:06:16.933Z,6.87
2018-04-02T00:07:16.913Z,6.89
2018-04-02T00:08:16.887Z,6.77
2018-04-02T00:09:16.870Z,6.85
2018-04-02T00:10:16.846Z,6.80
2018-04-02T00:11:16.830Z,6.85
2018-04-02T00:12:16.801Z,6.82
2018-04-02T00:13:16.781Z,6.82
2018-04-02T00:14:16.763Z,6.82
2018-04-02T00:15:16.738Z,6.82
2018-04-02T00:16:16.719Z,6.78
2018-04-02T00:17:16.703Z,6.77
2018-04-02T00:18:16.672Z,6.87
2018-04-02T00:19:16.651Z,6.89
2018-04-02T00:20:16.747Z,6.77
2018-04-02T00:21:16.609Z,6.89
2018-04-02T00:22:16.593Z,6.86
2018-04-02T00:23:16.616Z,6.89
2018-04-02T00:24:16.546Z,6.80
2018-04-02T00:25:16.525Z,6.86
2018-04-02T00:26:16.501Z,6.87
2018-04-02T00:27:16.479Z,6.86
2018-04-02T00:28:16.458Z,6.93
2018-04-02T00:29:16.438Z,6.87
2018-04-02T00:30:16.421Z,6.97
2018-04-02T00:31:16.397Z,6.89
2018-04-02T00:32:16.373Z,6.85
2018-04-02T00:33:16.359Z,6.77
2018-04-02T00:34:16.332Z,6.85
2018-04-02T00:35:16.310Z,6.78
2018-04-02T00:36:16.294Z,6.87
2018-04-02T00:37:16.266Z,6.80
2018-04-02T00:38:16.247Z,6.72
2018-04-02T00:39:16.228Z,6.85
2018-04-02T00:40:16.207Z,6.80
2018-04-02T00:41:16.185Z,6.72
2018-04-02T00:42:16.167Z,6.72
2018-04-02T00:43:16.140Z,6.74
2018-04-02T00:44:16.264Z,6.74
2018-04-02T00:45:16.102Z,6.74
2018-04-02T00:46:16.086Z,6.74
2018-04-02T00:47:16.120Z,6.75
2018-04-02T00:48:16.036Z,6.83
2018-04-02T00:49:16.011Z,6.75
2018-04-02T00:50:16.045Z,6.75
2018-04-02T00:51:15.968Z,6.82
2018-04-02T00:52:15.948Z,6.74
2018-04-02T00:53:15.932Z,6.74
2018-04-02T00:54:15.918Z,6.72
2018-04-02T00:55:15.886Z,6.82
2018-04-02T00:56:15.864Z,6.75
2018-04-02T00:57:15.844Z,6.72
2018-04-02T00:58:15.820Z,6.92
2018-04-02T00:59:15.808Z,6.82
2018-04-02T01:00:15.777Z,6.82
2018-04-02T01:01:15.758Z,6.87
2018-04-02T01:02:15.735Z,6.87
2018-04-02T01:03:15.714Z,6.83
2018-04-02T01:04:15.694Z,6.95
2018-04-02T01:05:15.678Z,7.00
2018-04-02T01:06:15.655Z,6.92
2018-04-02T01:07:15.629Z,6.92
2018-04-02T01:08:15.624Z,7.01
2018-04-02T01:09:15.586Z,6.97
2018-04-02T01:10:15.724Z,7.03
2018-04-02T01:11:15.547Z,6.93
2018-04-02T01:12:15.522Z,6.93
2018-04-02T01:13:15.509Z,7.05
2018-04-02T01:14:15.483Z,7.10
2018-04-02T01:15:15.458Z,7.04
2018-04-02T01:16:15.493Z,7.00
2018-04-02T01:17:15.416Z,7.03
2018-04-02T01:18:15.397Z,6.95
2018-04-02T01:19:15.373Z,6.89
2018-04-02T01:20:15.353Z,6.86
2018-04-02T01:21:15.333Z,6.83
2018-04-02T01:22:15.320Z,6.77
2018-04-02T01:23:15.291Z,6.82
2018-04-02T01:24:15.266Z,6.75
2018-04-02T01:25:15.244Z,6.75
2018-04-02T01:26:15.224Z,6.67
2018-04-02T01:27:15.205Z,6.68
2018-04-02T01:28:15.181Z,6.68
2018-04-02T01:29:15.163Z,6.71
2018-04-02T01:30:15.141Z,6.71
2018-04-02T01:31:15.116Z,6.68
2018-04-02T01:32:15.203Z,6.62
2018-04-02T01:33:15.073Z,6.67
2018-04-02T01:34:15.052Z,6.52
2018-04-02T01:35:15.194Z,6.56
2018-04-02T01:36:15.023Z,6.50
2018-04-02T01:37:14.991Z,6.54
2018-04-02T01:38:14.975Z,6.49
2018-04-02T01:39:14.945Z,6.47
2018-04-02T01:40:14.925Z,6.39
2018-04-02T01:41:14.902Z,6.39
2018-04-02T01:42:14.881Z,6.39
2018-04-02T01:43:14.859Z,6.44
2018-04-02T01:44:14.840Z,6.50
2018-04-02T01:45:14.869Z,6.44
2018-04-02T01:46:14.794Z,6.47
2018-04-02T01:47:14.771Z,6.44
2018-04-02T01:48:14.750Z,6.41
2018-04-02T01:49:14.733Z,6.41
2018-04-02T01:50:14.713Z,6.53
2018-04-02T01:51:14.688Z,6.50
2018-04-02T01:52:14.668Z,6.60
2018-04-02T01:53:14.649Z,6.67
2018-04-02T01:54:14.629Z,6.68
2018-04-02T01:55:14.600Z,6.74
2018-04-02T01:56:14.580Z,6.68
2018-04-02T01:57:14.557Z,6.72
2018-04-02T01:58:14.614Z,6.70
2018-04-02T01:59:14.518Z,6.54
2018-04-02T02:00:14.492Z,6.60
2018-04-02T02:01:14.483Z,6.53
2018-04-02T02:02:14.454Z,6.65
2018-04-02T02:03:14.446Z,6.50
2018-04-02T02:04:14.406Z,6.64
2018-04-02T02:05:14.394Z,6.68
2018-04-02T02:06:14.368Z,6.59
2018-04-02T02:07:14.348Z,6.57
2018-04-02T02:08:14.322Z,6.53
2018-04-02T02:09:14.299Z,6.47
2018-04-02T02:10:14.279Z,6.46
2018-04-02T02:11:14.259Z,6.44
2018-04-02T02:12:14.236Z,6.41
2018-04-02T02:13:14.223Z,6.38
2018-04-02T02:14:14.191Z,6.39
2018-04-02T02:15:14.168Z,6.32
2018-04-02T02:16:14.149Z,6.34
2018-04-02T02:17:14.129Z,6.32
2018-04-02T02:18:14.105Z,6.35
2018-04-02T02:19:14.085Z,6.34
2018-04-02T02:20:14.064Z,6.28
2018-04-02T02:21:14.042Z,6.47
2018-04-02T02:22:14.025Z,6.44
2018-04-02T02:23:13.997Z,6.32
2018-04-02T02:24:13.976Z,6.38
2018-04-02T02:25:13.969Z,6.46
2018-04-02T02:26:13.934Z,6.47
2018-04-02T02:27:13.914Z,6.43
2018-04-02T02:28:13.994Z,6.47
2018-04-02T02:29:13.869Z,6.47
2018-04-02T02:30:13.851Z,6.47
2018-04-02T02:31:13.824Z,6.43
2018-04-02T02:32:13.803Z,6.43
2018-04-02T02:33:13.783Z,6.49
2018-04-02T02:34:13.764Z,6.47
2018-04-02T02:35:13.739Z,6.46
2018-04-02T02:36:13.725Z,6.49
2018-04-02T02:37:13.699Z,6.49
2018-04-02T02:38:13.735Z,6.47
2018-04-02T02:39:13.652Z,6.46
2018-04-02T02:40:13.634Z,6.50
2018-04-02T02:41:13.625Z,6.46
2018-04-02T02:42:13.591Z,6.50
2018-04-02T02:43:13.567Z,6.41
2018-04-02T02:44:13.548Z,6.41
2018-04-02T02:45:13.524Z,6.39
2018-04-02T02:46:13.507Z,6.44
2018-04-02T02:47:13.484Z,6.46
2018-04-02T02:48:13.463Z,6.43
2018-04-02T02:49:13.441Z,6.47
2018-04-02T02:50:13.417Z,6.36
2018-04-02T02:51:13.397Z,6.28
2018-04-02T02:52:13.375Z,6.25
2018-04-02T02:53:13.353Z,6.15
2018-04-02T02:54:13.330Z,6.13
2018-04-02T02:55:13.310Z,6.19
2018-04-02T02:56:13.297Z,6.32
2018-04-02T02:57:13.270Z,6.26
2018-04-02T02:58:13.257Z,6.29
2018-04-02T02:59:13.223Z,6.32
2018-04-02T03:00:13.224Z,6.39
2018-04-02T03:01:13.180Z,6.43
2018-04-02T03:02:13.171Z,6.49
2018-04-02T03:03:13.143Z,6.43
2018-04-02T03:04:13.117Z,6.39
2018-04-02T03:05:13.092Z,6.28
2018-04-02T03:06:13.072Z,6.31
2018-04-02T03:07:13.053Z,6.38
2018-04-02T03:08:13.030Z,6.39
2018-04-02T03:09:13.019Z,6.46
2018-04-02T03:10:12.989Z,6.39
2018-04-02T03:11:12.963Z,6.44
2018-04-02T03:12:12.944Z,6.32
2018-04-02T03:13:12.921Z,6.38
2018-04-02T03:14:12.899Z,6.26
2018-04-02T03:15:12.877Z,6.34
2018-04-02T03:16:12.855Z,6.34
2018-04-02T03:17:12.833Z,6.35
2018-04-02T03:18:12.812Z,6.28
2018-04-02T03:19:12.835Z,6.22
2018-04-02T03:20:12.788Z,6.28
2018-04-02T03:21:12.748Z,6.25
2018-04-02T03:22:12.731Z,6.22
2018-04-02T03:23:12.706Z,6.26
2018-04-02T03:24:12.682Z,6.31
2018-04-02T03:25:12.677Z,6.22
2018-04-02T03:26:12.638Z,6.20
2018-04-02T03:27:12.616Z,6.20
2018-04-02T03:28:12.594Z,6.34
2018-04-02T03:29:12.577Z,6.31
2018-04-02T03:30:12.577Z,6.22
2018-04-02T03:31:12.531Z,6.29
2018-04-02T03:32:12.508Z,6.28
2018-04-02T03:33:12.572Z,6.31
2018-04-02T03:34:12.465Z,6.35
2018-04-02T03:35:12.446Z,6.32
2018-04-02T03:36:12.420Z,6.28
2018-04-02T03:37:12.398Z,6.34
2018-04-02T03:38:12.377Z,6.38
2018-04-02T03:39:12.356Z,6.34
2018-04-02T03:40:12.335Z,6.38
2018-04-02T03:41:12.313Z,6.49
2018-04-02T03:42:12.297Z,6.44
2018-04-02T03:43:12.269Z,6.38
2018-04-02T03:44:12.247Z,6.43
2018-04-02T03:45:12.227Z,6.41
2018-04-02T03:46:12.204Z,6.54
2018-04-02T03:47:12.185Z,6.50
2018-04-02T03:48:12.164Z,6.53
2018-04-02T03:49:12.140Z,6.60
2018-04-02T03:50:12.120Z,6.60
2018-04-02T03:51:12.098Z,6.60
2018-04-02T03:52:12.145Z,6.62
2018-04-02T03:53:12.055Z,6.59
2018-04-02T03:54:12.034Z,6.62
2018-04-02T03:55:12.027Z,6.70
2018-04-02T03:56:11.987Z,6.67
2018-04-02T03:57:11.968Z,6.64
2018-04-02T03:58:11.969Z,6.54
2018-04-02T03:59:11.923Z,6.54
2018-04-02T04:00:11.912Z,6.59
2018-04-02T04:01:11.887Z,6.54
2018-04-02T04:02:11.862Z,6.57
2018-04-02T04:03:11.837Z,6.54
2018-04-02T04:04:11.825Z,6.50
2018-04-02T04:05:11.795Z,6.41
2018-04-02T04:06:11.782Z,6.52
2018-04-02T04:07:11.779Z,6.41
2018-04-02T04:08:11.737Z,6.36
2018-04-02T04:09:11.711Z,6.44
2018-04-02T04:10:11.691Z,6.41
2018-04-02T04:11:11.674Z,6.46
2018-04-02T04:12:11.646Z,6.46
2018-04-02T04:13:11.625Z,6.46
2018-04-02T04:14:11.601Z,6.34
2018-04-02T04:15:11.580Z,6.49
2018-04-02T04:16:11.560Z,6.46
2018-04-02T04:17:11.540Z,6.36
2018-04-02T04:18:11.515Z,6.38
2018-04-02T04:19:11.499Z,6.52
2018-04-02T04:20:11.477Z,6.32
2018-04-02T04:21:11.453Z,6.34
2018-04-02T04:22:11.447Z,6.35
2018-04-02T04:23:11.406Z,6.35
2018-04-02T04:24:11.391Z,6.34
2018-04-02T04:25:11.386Z,6.38
2018-04-02T04:26:11.344Z,6.44
2018-04-02T04:27:11.323Z,6.44
2018-04-02T04:28:11.405Z,6.53
2018-04-02T04:29:11.276Z,6.47
2018-04-02T04:30:11.257Z,6.54
2018-04-02T04:31:11.238Z,6.43
2018-04-02T04:32:11.214Z,6.49
2018-04-02T04:33:11.192Z,6.49
2018-04-02T04:34:11.173Z,6.38
2018-04-02T04:35:11.147Z,6.41
2018-04-02T04:36:11.129Z,6.34
2018-04-02T04:37:11.109Z,6.38
2018-04-02T04:38:11.085Z,6.31
2018-04-02T04:39:11.061Z,6.39
2018-04-02T04:40:11.041Z,6.34
2018-04-02T04:41:11.020Z,6.34
2018-04-02T04:42:10.996Z,6.34
2018-04-02T04:43:10.976Z,6.26
2018-04-02T04:44:10.960Z,6.26
2018-04-02T04:45:10.932Z,6.38
2018-04-02T04:46:10.911Z,6.32
2018-04-02T04:47:11.039Z,6.35
2018-04-02T04:48:10.866Z,6.39
2018-04-02T04:49:10.846Z,6.35
2018-04-02T04:50:10.887Z,6.32
2018-04-02T04:51:10.801Z,6.49
2018-04-02T04:52:10.779Z,6.44
2018-04-02T04:53:10.759Z,6.41
2018-04-02T04:54:10.738Z,6.49
2018-04-02T04:55:10.715Z,6.43
2018-04-02T04:56:10.695Z,6.44
2018-04-02T04:57:10.672Z,6.52
2018-04-02T04:58:10.647Z,6.44
2018-04-02T04:59:10.626Z,6.49
2018-04-02T05:00:10.607Z,6.49
2018-04-02T05:01:10.585Z,6.53
2018-04-02T05:02:10.565Z,6.43
2018-04-02T05:03:10.541Z,6.50
2018-04-02T05:04:10.517Z,6.50
2018-04-02T05:05:10.494Z,6.44
2018-04-02T05:06:10.474Z,6.44
2018-04-02T05:07:10.455Z,6.50
2018-04-02T05:08:10.430Z,6.31
2018-04-02T05:09:10.409Z,6.35
2018-04-02T05:10:10.386Z,6.32
2018-04-02T05:11:10.365Z,6.26
2018-04-02T05:12:10.343Z,6.38
2018-04-02T05:13:10.321Z,6.36
2018-04-02T05:14:10.301Z,6.34
2018-04-02T05:15:10.275Z,6.43
2018-04-02T05:16:10.261Z,6.39
2018-04-02T05:17:10.399Z,6.31
2018-04-02T05:18:10.221Z,6.32
2018-04-02T05:19:10.192Z,6.34
2018-04-02T05:20:10.189Z,6.34
2018-04-02T05:21:10.146Z,6.41
2018-04-02T05:22:10.124Z,6.47
2018-04-02T05:23:10.103Z,6.49
2018-04-02T05:24:10.083Z,6.50
2018-04-02T05:25:10.065Z,6.43
2018-04-02T05:26:10.036Z,6.47
2018-04-02T05:27:10.014Z,6.32
2018-04-02T05:28:09.998Z,6.44
2018-04-02T05:29:09.988Z,6.36
2018-04-02T05:30:09.954Z,6.50
2018-04-02T05:31:09.927Z,6.50
2018-04-02T05:32:09.904Z,6.46
2018-04-02T05:33:09.882Z,6.44
2018-04-02T05:34:09.860Z,6.47
2018-04-02T05:35:09.862Z,6.41
2018-04-02T05:36:09.918Z,6.50
2018-04-02T05:37:09.795Z,6.46
2018-04-02T05:38:09.774Z,6.44
2018-04-02T05:39:09.806Z,6.44
2018-04-02T05:40:09.731Z,6.43
2018-04-02T05:41:09.711Z,6.49
2018-04-02T05:42:09.691Z,6.39
2018-04-02T05:43:09.662Z,6.35
2018-04-02T05:44:09.643Z,6.31
2018-04-02T05:45:09.621Z,6.32
2018-04-02T05:46:09.600Z,6.28
2018-04-02T05:47:09.618Z,6.28
2018-04-02T05:48:09.554Z,6.28
2018-04-02T05:49:09.531Z,6.38
2018-04-02T05:50:09.509Z,6.28
2018-04-02T05:51:09.489Z,6.36
2018-04-02T05:52:09.474Z,6.49
2018-04-02T05:53:09.444Z,6.46
2018-04-02T05:54:09.423Z,6.43
2018-04-02T05:55:09.405Z,6.44
2018-04-02T05:56:09.384Z,6.50
2018-04-02T05:57:09.369Z,6.44
2018-04-02T05:58:09.507Z,6.34
2018-04-02T05:59:09.321Z,6.38
2018-04-02T06:00:09.289Z,6.35
2018-04-02T06:01:09.296Z,6.36
2018-04-02T06:02:09.248Z,6.38
2018-04-02T06:03:09.233Z,6.39
2018-04-02T06:04:09.206Z,6.36
2018-04-02T06:05:09.233Z,6.36
2018-04-02T06:06:09.221Z,6.47
2018-04-02T06:07:09.136Z,6.44
2018-04-02T06:08:09.116Z,6.34
2018-04-02T06:09:09.165Z,6.31
2018-04-02T06:10:09.076Z,6.32
2018-04-02T06:11:09.049Z,6.44
2018-04-02T06:12:09.037Z,6.47
2018-04-02T06:13:09.006Z,6.46
2018-04-02T06:14:08.989Z,6.46
2018-04-02T06:15:08.966Z,6.56
2018-04-02T06:16:08.999Z,6.57
2018-04-02T06:17:08.918Z,6.62
2018-04-02T06:18:08.897Z,6.64
2018-04-02T06:19:08.876Z,6.72
2018-04-02T06:20:08.856Z,6.71
2018-04-02T06:21:08.835Z,6.75
2018-04-02T06:22:08.811Z,6.75
2018-04-02T06:23:08.790Z,6.78
2018-04-02T06:24:08.768Z,6.77
2018-04-02T06:25:08.761Z,6.78
2018-04-02T06:26:08.727Z,7.00
2018-04-02T06:27:08.721Z,6.97
2018-04-02T06:28:08.712Z,7.05
2018-04-02T06:29:08.660Z,7.14
2018-04-02T06:30:08.641Z,7.05
2018-04-02T06:31:08.625Z,7.08
2018-04-02T06:32:08.599Z,7.08
2018-04-02T06:33:08.576Z,7.15
2018-04-02T06:34:08.559Z,7.15
2018-04-02T06:35:08.534Z,7.28
2018-04-02T06:36:08.522Z,7.10
2018-04-02T06:37:08.529Z,7.05
2018-04-02T06:38:08.470Z,7.08
2018-04-02T06:39:08.446Z,7.18
2018-04-02T06:40:08.428Z,7.19
2018-04-02T06:41:08.406Z,7.32
2018-04-02T06:42:08.385Z,7.37
2018-04-02T06:43:08.362Z,7.41
2018-04-02T06:44:08.355Z,7.48
2018-04-02T06:45:08.363Z,7.64
2018-04-02T06:46:08.303Z,7.50
2018-04-02T06:47:08.282Z,7.48
2018-04-02T06:48:08.263Z,7.53
2018-04-02T06:49:08.243Z,7.53
2018-04-02T06:50:08.217Z,7.41
2018-04-02T06:51:08.216Z,7.44
2018-04-02T06:52:08.176Z,7.48
2018-04-02T06:53:08.166Z,7.36
2018-04-02T06:54:08.137Z,7.21
2018-04-02T06:55:08.114Z,7.10
2018-04-02T06:56:08.096Z,7.15
2018-04-02T06:57:08.075Z,7.07
2018-04-02T06:58:08.118Z,7.18
2018-04-02T06:59:08.031Z,7.22
2018-04-02T07:00:08.011Z,7.15
2018-04-02T07:01:07.992Z,7.03
2018-04-02T07:02:07.977Z,7.10
2018-04-02T07:03:07.949Z,7.05
2018-04-02T07:04:07.929Z,7.19
2018-04-02T07:05:07.909Z,7.28
2018-04-02T07:06:07.890Z,7.31
2018-04-02T07:07:07.994Z,7.28
2018-04-02T07:08:07.845Z,7.48
2018-04-02T07:09:07.825Z,7.44
2018-04-02T07:10:07.909Z,7.41
2018-04-02T07:11:07.782Z,7.50
2018-04-02T07:12:07.765Z,7.48
2018-04-02T07:13:07.744Z,7.50
2018-04-02T07:14:07.723Z,7.64
2018-04-02T07:15:07.699Z,7.67
2018-04-02T07:16:07.679Z,7.70
2018-04-02T07:17:07.658Z,7.90
2018-04-02T07:18:07.639Z,7.91
2018-04-02T07:19:07.618Z,7.98
2018-04-02T07:20:07.603Z,8.05
2018-04-02T07:21:07.580Z,8.11
2018-04-02T07:22:07.558Z,8.09
2018-04-02T07:23:07.570Z,8.18
2018-04-02T07:24:07.517Z,8.11
2018-04-02T07:25:07.498Z,8.17
2018-04-02T07:26:07.481Z,8.11
2018-04-02T07:27:07.458Z,8.05
2018-04-02T07:28:07.441Z,8.18
2018-04-02T07:29:07.438Z,7.98
2018-04-02T07:30:07.397Z,7.88
2018-04-02T07:31:07.375Z,7.93
2018-04-02T07:32:07.356Z,7.93
2018-04-02T07:33:07.338Z,7.84
2018-04-02T07:34:07.320Z,7.74
2018-04-02T07:35:07.299Z,7.80
2018-04-02T07:36:07.277Z,7.93
2018-04-02T07:37:07.266Z,7.91
2018-04-02T07:38:07.239Z,8.13
2018-04-02T07:39:07.319Z,8.08
2018-04-02T07:40:07.202Z,8.21
2018-04-02T07:41:07.183Z,8.18
2018-04-02T07:42:07.159Z,8.36
2018-04-02T07:43:07.155Z,8.56
2018-04-02T07:44:07.149Z,8.75
2018-04-02T07:45:07.117Z,8.81
2018-04-02T07:46:07.078Z,9.08
2018-04-02T07:47:07.065Z,9.19
2018-04-02T07:48:07.046Z,9.44
2018-04-02T07:49:07.100Z,9.51
2018-04-02T07:50:07.003Z,9.88
2018-04-02T07:51:06.985Z,9.80
2018-04-02T07:52:07.002Z,10.09
2018-04-02T07:53:06.945Z,10.28
2018-04-02T07:54:06.926Z,10.27
2018-04-02T07:55:06.964Z,10.33
2018-04-02T07:56:06.889Z,10.36
2018-04-02T07:57:06.941Z,10.23
2018-04-02T07:58:06.854Z,9.76
2018-04-02T07:59:06.838Z,9.48
2018-04-02T08:00:06.830Z,9.45
2018-04-02T08:01:06.805Z,9.33
2018-04-02T08:02:06.799Z,9.39
2018-04-02T08:03:06.787Z,9.39
2018-04-02T08:04:06.749Z,9.39
2018-04-02T08:05:06.733Z,9.29
2018-04-02T08:06:06.715Z,9.24
2018-04-02T08:07:06.698Z,9.31
2018-04-02T08:08:06.676Z,9.19
2018-04-02T08:09:06.662Z,9.26
2018-04-02T08:10:06.646Z,9.63
2018-04-02T08:11:06.626Z,9.82
2018-04-02T08:12:06.673Z,10.20
2018-04-02T08:13:06.593Z,10.03
2018-04-02T08:14:06.574Z,10.31
2018-04-02T08:15:06.594Z,10.42
2018-04-02T08:16:06.553Z,10.30
2018-04-02T08:17:06.523Z,10.13
2018-04-02T08:18:06.520Z,10.38
2018-04-02T08:19:06.620Z,10.58
2018-04-02T08:20:06.482Z,11.02
2018-04-02T08:21:06.454Z,10.86
2018-04-02T08:22:06.473Z,11.23
2018-04-02T08:23:06.429Z,11.40
2018-04-02T08:24:06.404Z,11.38
2018-04-02T08:25:06.391Z,11.31
2018-04-02T08:26:06.381Z,11.59
2018-04-02T08:27:06.359Z,11.41
2018-04-02T08:28:06.353Z,11.22
2018-04-02T08:29:06.325Z,11.18
2018-04-02T08:30:06.310Z,11.12
2018-04-02T08:31:06.307Z,11.08
2018-04-02T08:32:06.275Z,11.27
2018-04-02T08:33:06.258Z,11.40
2018-04-02T08:34:06.246Z,11.33
2018-04-02T08:35:06.229Z,11.45
2018-04-02T08:36:06.216Z,12.10
2018-04-02T08:37:06.200Z,12.36
2018-04-02T08:38:06.230Z,12.33
2018-04-02T08:39:06.164Z,11.86
2018-04-02T08:40:06.174Z,12.10
2018-04-02T08:41:06.139Z,12.21
2018-04-02T08:42:06.121Z,12.20
2018-04-02T08:43:06.109Z,12.32
2018-04-02T08:44:06.090Z,12.00
2018-04-02T08:45:06.110Z,11.83
2018-04-02T08:46:06.061Z,11.65
2018-04-02T08:47:06.052Z,11.91
2018-04-02T08:48:06.041Z,12.14
2018-04-02T08:49:06.017Z,12.23
2018-04-02T08:50:06.003Z,12.07
2018-04-02T08:51:05.993Z,11.86
2018-04-02T08:52:05.978Z,11.86
2018-04-02T08:53:05.957Z,11.81
2018-04-02T08:54:05.957Z,11.83
2018-04-02T08:55:05.932Z,11.86
2018-04-02T08:56:05.916Z,11.95
2018-04-02T08:57:05.902Z,11.74
2018-04-02T08:58:05.888Z,11.55
2018-04-02T08:59:05.872Z,11.70
2018-04-02T09:00:05.878Z,11.62
2018-04-02T09:01:05.863Z,11.65
2018-04-02T09:02:05.830Z,11.60
2018-04-02T09:03:05.821Z,11.74
2018-04-02T09:04:05.801Z,11.81
2018-04-02T09:05:05.787Z,11.89
2018-04-02T09:06:05.768Z,12.00
2018-04-02T09:07:05.760Z,12.14
2018-04-02T09:08:05.738Z,12.35
2018-04-02T09:09:05.725Z,12.61
2018-04-02T09:10:05.750Z,12.80
2018-04-02T09:11:05.706Z,12.76
2018-04-02T09:12:05.681Z,12.76
2018-04-02T09:13:05.669Z,12.72
2018-04-02T09:14:05.658Z,12.58
2018-04-02T09:15:05.638Z,12.33
2018-04-02T09:16:05.624Z,12.20
2018-04-02T09:17:05.619Z,12.08
2018-04-02T09:18:05.598Z,12.07
2018-04-02T09:19:05.591Z,12.28
2018-04-02T09:20:05.578Z,12.20
2018-04-02T09:21:05.565Z,12.30
2018-04-02T09:22:05.543Z,12.36
2018-04-02T09:23:05.524Z,12.50
2018-04-02T09:24:05.513Z,12.66
2018-04-02T09:25:05.501Z,12.73
2018-04-02T09:26:05.487Z,12.73
2018-04-02T09:27:05.479Z,13.01
2018-04-02T09:28:05.468Z,13.08
2018-04-02T09:29:05.444Z,13.03
2018-04-02T09:30:05.428Z,12.95
2018-04-02T09:31:05.432Z,13.13
2018-04-02T09:32:05.398Z,13.03
2018-04-02T09:33:05.384Z,13.05
2018-04-02T09:34:05.374Z,12.80
2018-04-02T09:35:05.400Z,12.87
2018-04-02T09:36:05.345Z,12.99
2018-04-02T09:37:05.334Z,12.93
2018-04-02T09:38:05.316Z,13.11
2018-04-02T09:39:05.302Z,13.26
2018-04-02T09:40:05.291Z,12.61
2018-04-02T09:41:05.277Z,12.54
2018-04-02T09:42:05.272Z,12.61
2018-04-02T09:43:05.251Z,12.91
2018-04-02T09:44:05.237Z,13.28
2018-04-02T09:45:05.223Z,13.08
2018-04-02T09:46:05.214Z,12.84
2018-04-02T09:47:05.203Z,12.84
2018-04-02T09:48:05.248Z,12.70
2018-04-02T09:49:05.179Z,12.84
2018-04-02T09:50:05.159Z,12.95
2018-04-02T09:51:05.144Z,13.26
2018-04-02T09:52:05.140Z,13.55
2018-04-02T09:53:05.129Z,13.31
2018-04-02T09:54:05.191Z,13.40
2018-04-02T09:55:05.101Z,13.24
2018-04-02T09:56:05.080Z,13.23
2018-04-02T09:57:05.073Z,13.31
2018-04-02T09:58:05.058Z,13.27
2018-04-02T09:59:05.038Z,13.17
2018-04-02T10:00:05.029Z,12.94
2018-04-02T10:01:05.025Z,12.87
2018-04-02T10:02:05.004Z,12.53
2018-04-02T10:03:04.992Z,12.21
2018-04-02T10:04:04.975Z,12.18
2018-04-02T10:05:05.105Z,12.35
2018-04-02T10:06:04.953Z,12.32
2018-04-02T10:07:04.941Z,12.23
2018-04-02T10:08:04.919Z,12.00
2018-04-02T10:09:04.913Z,11.83
2018-04-02T10:10:04.949Z,11.81
2018-04-02T10:11:04.873Z,11.80
2018-04-02T10:12:04.863Z,12.00
2018-04-02T10:13:04.858Z,12.08
2018-04-02T10:14:04.840Z,12.35
2018-04-02T10:15:04.818Z,12.61
2018-04-02T10:16:04.811Z,12.53
2018-04-02T10:17:04.789Z,12.29
2018-04-02T10:18:04.782Z,12.39
2018-04-02T10:19:04.759Z,12.45
2018-04-02T10:20:04.740Z,12.57
2018-04-02T10:21:04.741Z,12.63
2018-04-02T10:22:04.712Z,12.63
2018-04-02T10:23:04.698Z,12.30
2018-04-02T10:24:04.781Z,12.21
2018-04-02T10:25:04.667Z,12.32
2018-04-02T10:26:04.653Z,12.39
2018-04-02T10:27:04.652Z,12.54
2018-04-02T10:28:04.620Z,12.73
2018-04-02T10:29:04.605Z,13.17
2018-04-02T10:30:04.672Z,13.42
2018-04-02T10:31:04.613Z,13.64
2018-04-02T10:32:04.565Z,13.43
2018-04-02T10:33:04.547Z,13.52
2018-04-02T10:34:04.536Z,13.70
2018-04-02T10:35:04.518Z,14.04
2018-04-02T10:36:04.506Z,14.00
2018-04-02T10:37:04.499Z,14.03
2018-04-02T10:38:04.482Z,13.94
2018-04-02T10:39:04.465Z,14.05
2018-04-02T10:40:04.450Z,14.18
2018-04-02T10:41:04.435Z,14.28
2018-04-02T10:42:04.424Z,14.49
2018-04-02T10:43:04.405Z,14.93
2018-04-02T10:44:04.396Z,15.25
2018-04-02T10:45:04.384Z,15.07
2018-04-02T10:46:04.377Z,14.78
2018-04-02T10:47:04.374Z,15.00
2018-04-02T10:48:04.349Z,15.22
2018-04-02T10:49:04.387Z,15.05
2018-04-02T10:50:04.320Z,15.02
2018-04-02T10:51:04.304Z,14.92
2018-04-02T10:52:04.295Z,14.71
2018-04-02T10:53:04.293Z,14.62
2018-04-02T10:54:04.272Z,14.58
2018-04-02T10:55:04.260Z,14.92
2018-04-02T10:56:04.246Z,15.02
2018-04-02T10:57:04.238Z,15.10
2018-04-02T10:58:04.229Z,15.05
2018-04-02T10:59:04.223Z,14.56
2018-04-02T11:00:04.199Z,14.74
2018-04-02T11:01:04.190Z,15.33
2018-04-02T11:02:04.183Z,15.25
2018-04-02T11:03:04.164Z,15.23
2018-04-02T11:04:04.262Z,15.29
2018-04-02T11:05:04.150Z,15.19
2018-04-02T11:06:04.133Z,15.62
2018-04-02T11:07:04.223Z,16.18
2018-04-02T11:08:04.111Z,16.26
2018-04-02T11:09:04.101Z,15.75
2018-04-02T11:10:04.091Z,15.57
2018-04-02T11:11:04.078Z,15.02
2018-04-02T11:12:04.066Z,14.71
2018-04-02T11:13:04.057Z,14.49
2018-04-02T11:14:04.059Z,14.45
2018-04-02T11:15:04.036Z,14.62
2018-04-02T11:16:04.037Z,14.89
2018-04-02T11:17:04.025Z,15.05
2018-04-02T11:18:04.012Z,15.19
2018-04-02T11:19:03.997Z,14.87
2018-04-02T11:20:04.150Z,14.58
2018-04-02T11:21:03.984Z,14.56
2018-04-02T11:22:03.966Z,14.43
2018-04-02T11:23:03.949Z,14.20
2018-04-02T11:24:03.941Z,14.04
2018-04-02T11:25:03.940Z,14.18
2018-04-02T11:26:03.920Z,14.00
2018-04-02T11:27:03.923Z,13.86
2018-04-02T11:28:03.898Z,13.82
2018-04-02T11:29:03.883Z,13.61
2018-04-02T11:30:03.871Z,13.42
2018-04-02T11:31:03.859Z,13.30
2018-04-02T11:32:03.848Z,13.36
2018-04-02T11:33:03.934Z,13.33
2018-04-02T11:34:03.821Z,13.30
2018-04-02T11:35:03.806Z,13.40
2018-04-02T11:36:03.804Z,13.64
2018-04-02T11:37:03.780Z,13.76
2018-04-02T11:38:03.768Z,13.93
2018-04-02T11:39:03.754Z,13.83
2018-04-02T11:40:03.739Z,13.82
2018-04-02T11:41:03.726Z,13.76
2018-04-02T11:42:03.718Z,13.73
2018-04-02T11:43:03.698Z,13.86
2018-04-02T11:44:03.705Z,13.86
2018-04-02T11:45:03.672Z,13.80
2018-04-02T11:46:03.664Z,13.46
2018-04-02T11:47:03.647Z,13.39
2018-04-02T11:48:03.629Z,13.27
2018-04-02T11:49:03.631Z,13.27
2018-04-02T11:50:03.608Z,13.13
2018-04-02T11:51:03.586Z,13.24
2018-04-02T11:52:03.591Z,13.31
2018-04-02T11:53:03.558Z,13.46
2018-04-02T11:54:03.552Z,13.62
2018-04-02T11:55:03.533Z,13.75
2018-04-02T11:56:03.515Z,13.85
2018-04-02T11:57:03.499Z,13.93
2018-04-02T11:58:03.485Z,13.78
2018-04-02T11:59:03.468Z,13.80
2018-04-02T12:00:03.454Z,13.73
2018-04-02T12:01:03.439Z,13.70
2018-04-02T12:02:03.427Z,13.54
2018-04-02T12:03:03.413Z,13.67
2018-04-02T12:04:03.398Z,13.61
2018-04-02T12:05:03.390Z,13.64
2018-04-02T12:06:03.374Z,13.55
2018-04-02T12:07:03.363Z,13.62
2018-04-02T12:08:03.336Z,13.64
2018-04-02T12:09:03.325Z,13.52
2018-04-02T12:10:03.311Z,13.40
2018-04-02T12:11:03.293Z,13.40
2018-04-02T12:12:03.282Z,13.52
2018-04-02T12:13:03.430Z,13.45
2018-04-02T12:14:03.245Z,13.58
2018-04-02T12:15:03.232Z,13.61
2018-04-02T12:16:03.251Z,13.64
2018-04-02T12:17:03.206Z,13.55
2018-04-02T12:18:03.187Z,13.61
2018-04-02T12:19:03.173Z,13.58
2018-04-02T12:20:03.158Z,13.46
2018-04-02T12:21:03.200Z,13.45
2018-04-02T12:22:03.134Z,13.71
2018-04-02T12:23:03.116Z,13.65
2018-04-02T12:24:03.098Z,13.73
2018-04-02T12:25:03.084Z,13.80
2018-04-02T12:26:03.070Z,13.89
2018-04-02T12:27:03.066Z,13.82
2018-04-02T12:28:03.036Z,13.89
2018-04-02T12:29:03.022Z,14.04
2018-04-02T12:30:03.014Z,14.13
2018-04-02T12:31:02.992Z,14.30
2018-04-02T12:32:03.032Z,14.23
2018-04-02T12:33:02.972Z,14.23
2018-04-02T12:34:02.945Z,13.91
2018-04-02T12:35:02.931Z,14.07
2018-04-02T12:36:02.981Z,14.18
2018-04-02T12:37:02.904Z,14.20
2018-04-02T12:38:02.893Z,14.40
2018-04-02T12:39:02.871Z,14.40
2018-04-02T12:40:02.855Z,14.49
2018-04-02T12:41:02.847Z,14.49
2018-04-02T12:42:02.829Z,14.58
2018-04-02T12:43:02.811Z,14.48
2018-04-02T12:44:02.805Z,14.34
2018-04-02T12:45:02.780Z,14.41
2018-04-02T12:46:02.769Z,14.49
2018-04-02T12:47:02.751Z,14.44
2018-04-02T12:48:02.742Z,14.20
2018-04-02T12:49:02.735Z,14.18
2018-04-02T12:50:02.717Z,14.41
2018-04-02T12:51:02.746Z,14.52
2018-04-02T12:52:02.677Z,14.38
2018-04-02T12:53:02.661Z,14.45
2018-04-02T12:54:02.661Z,14.43
2018-04-02T12:55:02.635Z,14.33
2018-04-02T12:56:02.619Z,14.30
2018-04-02T12:57:02.605Z,14.40
2018-04-02T12:58:02.586Z,14.51
2018-04-02T12:59:02.597Z,14.43
2018-04-02T13:00:02.562Z,14.40
2018-04-02T13:01:02.557Z,14.33
2018-04-02T13:02:02.532Z,14.51
2018-04-02T13:03:02.532Z,14.67
2018-04-02T13:04:02.511Z,14.74
2018-04-02T13:05:02.493Z,14.81
2018-04-02T13:06:02.471Z,14.92
2018-04-02T13:07:02.455Z,14.92
2018-04-02T13:08:02.440Z,14.86